createdAt,value
2019-03-31T00:01:55.649Z,3.17
2019-03-31T00:04:26.082Z,3.30
2019-03-31T00:06:56.563Z,3.30
2019-03-31T00:09:27.987Z,3.36
2019-03-31T00:11:58.499Z,3.28
2019-03-31T00:14:28.933Z,3.34
2019-03-31T00:16:59.511Z,3.33
2019-03-31T00:19:29.950Z,3.33
2019-03-31T00:22:00.459Z,3.24
2019-03-31T00:24:30.906Z,3.24
2019-03-31T00:27:01.399Z,3.32
2019-03-31T00:29:31.809Z,3.26
2019-03-31T00:32:02.288Z,3.18
2019-03-31T00:34:32.723Z,3.12
2019-03-31T00:37:03.621Z,3.14
2019-03-31T00:39:34.054Z,3.31
2019-03-31T00:42:04.623Z,3.26
2019-03-31T00:44:35.080Z,3.12
2019-03-31T00:47:05.541Z,3.13
2019-03-31T00:49:38.034Z,3.06
2019-03-31T00:52:08.518Z,3.10
2019-03-31T00:54:38.920Z,3.00
2019-03-31T00:57:09.385Z,2.89
2019-03-31T00:59:39.788Z,2.64
2019-03-31T01:02:11.857Z,2.65
2019-03-31T01:04:42.312Z,2.76
2019-03-31T01:07:12.823Z,2.80
2019-03-31T01:09:44.191Z,2.82
2019-03-31T01:12:14.873Z,2.76
2019-03-31T01:14:45.330Z,2.75
2019-03-31T01:17:18.878Z,2.72
2019-03-31T01:19:48.943Z,2.77
2019-03-31T01:22:19.433Z,2.70
2019-03-31T01:24:49.888Z,2.71
2019-03-31T01:27:20.462Z,2.68
2019-03-31T01:29:50.880Z,2.78
2019-03-31T01:32:21.492Z,2.58
2019-03-31T01:34:51.949Z,2.64
2019-03-31T01:37:22.857Z,2.58
2019-03-31T01:39:54.118Z,2.56
2019-03-31T01:42:24.708Z,2.57
2019-03-31T01:44:55.188Z,2.57
2019-03-31T01:47:25.664Z,2.68
2019-03-31T01:49:56.111Z,2.69
2019-03-31T01:52:26.561Z,2.67
2019-03-31T01:54:58.033Z,2.65
2019-03-31T01:57:28.488Z,2.54
2019-03-31T01:59:58.922Z,2.50
2019-03-31T02:02:30.845Z,2.60
2019-03-31T02:05:01.293Z,2.55
2019-03-31T02:07:31.764Z,2.46
2019-03-31T02:10:06.370Z,2.36
2019-03-31T02:12:36.852Z,2.32
2019-03-31T02:15:08.452Z,2.35
2019-03-31T02:17:38.993Z,2.38
2019-03-31T02:20:09.443Z,2.49
2019-03-31T02:22:39.902Z,2.44
2019-03-31T02:25:10.466Z,2.35
2019-03-31T02:27:40.860Z,2.40
2019-03-31T02:30:11.409Z,2.42
2019-03-31T02:32:41.870Z,2.46
2019-03-31T02:35:12.497Z,2.48
2019-03-31T02:37:43.010Z,2.50
2019-03-31T02:40:13.437Z,2.31
2019-03-31T02:42:43.893Z,2.33
2019-03-31T02:45:14.431Z,2.35
2019-03-31T02:47:44.901Z,2.43
2019-03-31T02:50:36.429Z,2.47
2019-03-31T02:53:06.918Z,2.41
2019-03-31T02:55:37.538Z,2.38
2019-03-31T02:58:09.016Z,2.37
2019-03-31T03:00:39.447Z,2.38
2019-03-31T03:03:10.329Z,2.46
2019-03-31T03:05:41.976Z,2.62
2019-03-31T03:08:14.253Z,2.43
2019-03-31T03:10:45.652Z,2.38
2019-03-31T03:13:16.177Z,2.32
2019-03-31T03:15:58.477Z,2.35
2019-03-31T03:18:29.090Z,2.42
2019-03-31T03:20:59.562Z,2.45
2019-03-31T03:23:30.062Z,2.09
2019-03-31T03:26:00.558Z,2.03
2019-03-31T03:28:31.046Z,2.08
2019-03-31T03:31:01.619Z,2.18
2019-03-31T03:33:32.314Z,2.29
2019-03-31T03:36:02.749Z,2.24
2019-03-31T03:38:33.257Z,2.25
2019-03-31T03:41:03.838Z,2.03
2019-03-31T03:43:34.319Z,2.06
2019-03-31T03:46:04.872Z,2.19
2019-03-31T03:48:35.671Z,2.18
2019-03-31T03:51:06.189Z,2.30
2019-03-31T03:53:36.708Z,2.43
2019-03-31T03:56:07.184Z,2.38
2019-03-31T03:58:37.679Z,2.38
2019-03-31T04:01:12.595Z,2.49
2019-03-31T04:03:43.095Z,2.52
2019-03-31T04:06:13.559Z,2.56
2019-03-31T04:08:44.026Z,2.73
2019-03-31T04:11:21.581Z,2.78
2019-03-31T04:13:50.938Z,2.83
2019-03-31T04:16:21.379Z,2.88
2019-03-31T04:18:51.953Z,2.94
2019-03-31T04:21:22.398Z,3.05
2019-03-31T04:23:52.928Z,3.17
2019-03-31T04:26:23.397Z,3.20
2019-03-31T04:28:53.907Z,3.34
2019-03-31T04:31:24.371Z,3.50
2019-03-31T04:33:54.862Z,3.61
2019-03-31T04:36:25.301Z,3.73
2019-03-31T04:38:59.896Z,3.86
2019-03-31T04:41:27.938Z,3.98
2019-03-31T04:43:58.450Z,4.18
2019-03-31T04:46:28.893Z,4.41
2019-03-31T04:48:59.385Z,4.56
2019-03-31T04:51:29.850Z,4.63
2019-03-31T04:54:00.411Z,4.81
2019-03-31T04:56:30.849Z,5.02
2019-03-31T04:59:01.350Z,5.14
2019-03-31T05:01:31.873Z,5.34
2019-03-31T05:04:05.067Z,5.55
2019-03-31T05:06:34.548Z,5.70
2019-03-31T05:09:06.447Z,5.93
2019-03-31T05:11:37.785Z,6.09
2019-03-31T05:14:08.280Z,6.25
2019-03-31T05:16:38.749Z,6.40
2019-03-31T05:19:09.309Z,6.61
2019-03-31T05:21:39.799Z,6.83
2019-03-31T05:24:10.325Z,7.12
2019-03-31T05:26:40.798Z,7.32
2019-03-31T05:29:11.405Z,7.51
2019-03-31T05:31:41.895Z,7.61
2019-03-31T05:34:18.818Z,7.77
2019-03-31T05:36:44.703Z,7.89
2019-03-31T05:39:15.211Z,8.12
2019-03-31T05:41:45.690Z,8.31
2019-03-31T05:44:16.240Z,8.60
2019-03-31T05:46:46.696Z,8.83
2019-03-31T05:49:17.209Z,9.03
2019-03-31T05:51:47.700Z,9.19
2019-03-31T05:54:18.223Z,9.39
2019-03-31T05:56:48.683Z,9.54
2019-03-31T05:59:19.210Z,9.88
2019-03-31T06:01:49.750Z,9.92
2019-03-31T06:04:32.597Z,10.08
2019-03-31T06:06:52.571Z,10.26
2019-03-31T06:09:23.177Z,10.39
2019-03-31T06:11:54.533Z,10.60
2019-03-31T06:14:25.053Z,10.60
2019-03-31T06:16:55.559Z,10.91
2019-03-31T06:19:26.165Z,11.48
2019-03-31T06:21:56.639Z,11.78
2019-03-31T06:24:27.212Z,11.66
2019-03-31T06:26:57.680Z,11.75
2019-03-31T06:29:28.200Z,11.55
2019-03-31T06:31:58.772Z,11.92
2019-03-31T06:34:29.258Z,11.66
2019-03-31T06:36:59.823Z,11.86
2019-03-31T06:39:30.349Z,11.85
2019-03-31T06:42:00.859Z,11.65
2019-03-31T06:44:31.370Z,12.01
2019-03-31T06:47:01.885Z,12.08
2019-03-31T06:49:32.443Z,11.86
2019-03-31T06:52:02.911Z,11.69
2019-03-31T06:54:33.471Z,11.80
2019-03-31T06:57:03.920Z,11.91
2019-03-31T06:59:34.410Z,11.99
2019-03-31T07:02:04.927Z,11.17
2019-03-31T07:04:35.461Z,11.20
2019-03-31T07:07:05.926Z,11.50
2019-03-31T07:09:36.472Z,11.80
2019-03-31T07:12:07.846Z,12.01
2019-03-31T07:14:38.409Z,12.23
2019-03-31T07:17:08.877Z,12.43
2019-03-31T07:19:39.510Z,12.41
2019-03-31T07:22:09.976Z,12.20
2019-03-31T07:24:40.496Z,12.04
2019-03-31T07:27:10.961Z,12.54
2019-03-31T07:29:41.878Z,12.99
2019-03-31T07:32:12.370Z,13.07
2019-03-31T07:34:42.984Z,13.23
2019-03-31T07:37:13.457Z,12.96
2019-03-31T07:39:45.963Z,12.68
2019-03-31T07:42:16.281Z,12.59
2019-03-31T07:44:46.836Z,12.92
2019-03-31T07:47:17.295Z,12.99
2019-03-31T07:49:47.800Z,12.92
2019-03-31T07:52:18.275Z,13.02
2019-03-31T07:54:48.811Z,12.76
2019-03-31T07:57:19.319Z,12.95
2019-03-31T07:59:49.901Z,13.16
2019-03-31T08:02:20.397Z,12.91
2019-03-31T08:04:51.152Z,13.26
2019-03-31T08:07:21.631Z,13.32
2019-03-31T08:09:52.202Z,13.41
2019-03-31T08:12:23.668Z,13.37
2019-03-31T08:14:54.171Z,13.39
2019-03-31T08:17:24.676Z,13.33
2019-03-31T08:19:55.257Z,13.19
2019-03-31T08:22:25.785Z,13.49
2019-03-31T08:24:56.341Z,13.61
2019-03-31T08:27:26.886Z,13.76
2019-03-31T08:30:00.833Z,14.12
2019-03-31T08:32:31.218Z,14.17
2019-03-31T08:35:01.742Z,14.65
2019-03-31T08:37:32.458Z,14.16
2019-03-31T08:40:03.125Z,14.23
2019-03-31T08:42:33.653Z,14.30
2019-03-31T08:45:10.483Z,14.52
2019-03-31T08:47:41.008Z,14.50
2019-03-31T08:50:14.013Z,14.27
2019-03-31T08:52:44.535Z,14.62
2019-03-31T08:55:15.496Z,14.75
2019-03-31T08:57:46.083Z,14.77
2019-03-31T09:00:22.368Z,14.92
2019-03-31T09:02:52.874Z,15.37
2019-03-31T09:05:23.420Z,15.25
2019-03-31T09:07:54.037Z,15.51
2019-03-31T09:10:27.232Z,15.28
2019-03-31T09:12:58.581Z,15.41
2019-03-31T09:15:29.062Z,14.88
2019-03-31T09:17:59.555Z,15.38
2019-03-31T09:20:30.190Z,15.04
2019-03-31T09:23:00.691Z,15.21
2019-03-31T09:25:31.269Z,15.97
2019-03-31T09:28:01.788Z,15.67
2019-03-31T09:30:34.898Z,15.32
2019-03-31T09:33:05.437Z,15.63
2019-03-31T09:35:35.922Z,15.44
2019-03-31T09:38:06.365Z,15.60
2019-03-31T09:40:36.929Z,15.85
2019-03-31T09:43:09.512Z,15.50
2019-03-31T09:45:40.067Z,15.58
2019-03-31T09:48:10.545Z,15.93
2019-03-31T09:50:41.076Z,16.10
2019-03-31T09:53:11.576Z,16.44
2019-03-31T09:55:42.088Z,15.92
2019-03-31T09:58:12.567Z,16.47
2019-03-31T10:00:45.972Z,16.91
2019-03-31T10:03:16.739Z,17.06
2019-03-31T10:05:48.124Z,16.68
2019-03-31T10:08:22.022Z,17.04
2019-03-31T10:10:51.422Z,17.12
2019-03-31T10:13:22.749Z,17.27
2019-03-31T10:15:54.277Z,17.22
2019-03-31T10:18:24.753Z,17.45
2019-03-31T10:20:55.344Z,17.83
2019-03-31T10:23:25.795Z,17.43
2019-03-31T10:25:56.347Z,17.38
2019-03-31T10:28:26.836Z,17.35
2019-03-31T10:30:57.356Z,17.27
2019-03-31T10:33:27.846Z,17.97
2019-03-31T10:35:58.366Z,18.96
2019-03-31T10:38:28.829Z,19.09
2019-03-31T10:40:59.339Z,18.94
2019-03-31T10:43:29.768Z,18.78
2019-03-31T10:46:00.266Z,19.18
2019-03-31T10:48:30.733Z,19.08
2019-03-31T10:51:01.981Z,19.95
2019-03-31T10:53:32.421Z,20.73
2019-03-31T10:56:02.938Z,19.84
2019-03-31T10:58:33.400Z,20.12
2019-03-31T11:01:03.900Z,20.21
2019-03-31T11:03:34.344Z,21.17
2019-03-31T11:06:04.812Z,21.80
2019-03-31T11:08:35.545Z,22.31
2019-03-31T11:11:06.041Z,21.39
2019-03-31T11:13:37.418Z,20.54
2019-03-31T11:16:07.936Z,21.06
2019-03-31T11:18:38.425Z,20.88
2019-03-31T11:21:10.560Z,20.90
2019-03-31T11:23:41.006Z,21.66
2019-03-31T11:26:11.463Z,21.76
2019-03-31T11:28:41.918Z,21.25
2019-03-31T11:31:12.413Z,21.48
2019-03-31T11:33:43.795Z,22.05
2019-03-31T11:36:14.309Z,21.12
2019-03-31T11:38:44.733Z,21.78
2019-03-31T11:41:15.221Z,22.08
2019-03-31T11:43:45.664Z,22.51
2019-03-31T11:46:16.135Z,22.98
2019-03-31T11:48:46.614Z,22.17
2019-03-31T11:51:17.105Z,22.67
2019-03-31T11:53:47.553Z,22.43
2019-03-31T11:56:18.054Z,22.43
2019-03-31T11:58:48.505Z,21.98
2019-03-31T12:01:18.975Z,22.66
2019-03-31T12:03:49.415Z,22.24
2019-03-31T12:06:19.897Z,22.25
2019-03-31T12:08:50.375Z,22.35
2019-03-31T12:11:20.861Z,23.27
2019-03-31T12:13:52.197Z,24.41
2019-03-31T12:16:24.253Z,23.33
2019-03-31T12:18:54.670Z,22.74
2019-03-31T12:21:25.223Z,22.35
2019-03-31T12:23:55.662Z,24.45
2019-03-31T12:26:26.214Z,24.17
2019-03-31T12:28:56.697Z,23.77
2019-03-31T12:31:27.204Z,24.67
2019-03-31T12:33:57.690Z,23.30
2019-03-31T12:36:28.189Z,23.17
2019-03-31T12:38:58.656Z,23.04
2019-03-31T12:41:29.142Z,22.61
2019-03-31T12:43:59.570Z,22.15
2019-03-31T12:46:30.085Z,22.83
2019-03-31T12:49:00.594Z,23.73
2019-03-31T12:51:31.050Z,23.25
2019-03-31T12:54:01.480Z,22.62
2019-03-31T12:56:31.997Z,23.05
2019-03-31T12:59:02.439Z,22.96
2019-03-31T13:01:32.989Z,23.20
2019-03-31T13:04:03.414Z,21.63
2019-03-31T13:06:33.930Z,20.76
2019-03-31T13:09:06.473Z,21.15
2019-03-31T13:11:36.987Z,22.49
2019-03-31T13:14:08.597Z,22.02
2019-03-31T13:16:39.106Z,22.56
2019-03-31T13:19:09.569Z,22.08
2019-03-31T13:21:41.234Z,22.63
2019-03-31T13:24:11.678Z,21.63
2019-03-31T13:26:42.147Z,21.78
2019-03-31T13:29:12.641Z,22.79
2019-03-31T13:31:43.078Z,23.61
2019-03-31T13:34:13.487Z,22.92
2019-03-31T13:36:43.930Z,22.76
2019-03-31T13:39:14.475Z,22.98
2019-03-31T13:41:47.114Z,23.99
2019-03-31T13:44:17.106Z,23.34
2019-03-31T13:46:47.640Z,23.42
2019-03-31T13:49:18.070Z,23.96
2019-03-31T13:51:48.562Z,24.23
2019-03-31T13:54:18.989Z,23.48
2019-03-31T13:56:50.381Z,23.64
2019-03-31T13:59:21.221Z,23.79
2019-03-31T14:01:51.734Z,24.91
2019-03-31T14:04:22.199Z,23.70
2019-03-31T14:06:52.784Z,22.67
2019-03-31T14:09:23.219Z,23.39
2019-03-31T14:11:54.466Z,23.32
2019-03-31T14:14:26.543Z,21.78
2019-03-31T14:16:57.046Z,20.17
2019-03-31T14:19:27.475Z,19.19
2019-03-31T14:21:58.036Z,18.71
2019-03-31T14:24:28.469Z,18.79
2019-03-31T14:26:58.982Z,18.93
2019-03-31T14:29:29.423Z,18.46
2019-03-31T14:31:59.935Z,18.39
2019-03-31T14:34:30.353Z,18.33
2019-03-31T14:37:00.832Z,18.18
2019-03-31T14:39:31.287Z,17.92
2019-03-31T14:42:01.770Z,17.77
2019-03-31T14:44:32.240Z,17.85
2019-03-31T14:47:02.728Z,17.87
2019-03-31T14:49:33.227Z,17.77
2019-03-31T14:52:03.708Z,17.71
2019-03-31T14:54:34.175Z,17.64
2019-03-31T14:57:04.751Z,17.53
2019-03-31T14:59:35.197Z,17.58
2019-03-31T15:02:05.704Z,17.49
2019-03-31T15:04:36.146Z,17.44
2019-03-31T15:07:06.628Z,17.43
2019-03-31T15:09:37.064Z,17.41
2019-03-31T15:12:07.598Z,17.31
2019-03-31T15:14:39.020Z,17.25
2019-03-31T15:17:09.516Z,17.20
2019-03-31T15:19:39.958Z,17.09
2019-03-31T15:22:10.552Z,17.10
2019-03-31T15:24:40.978Z,17.07
2019-03-31T15:27:11.462Z,16.98
2019-03-31T15:29:41.921Z,16.87
2019-03-31T15:32:12.384Z,16.81
2019-03-31T15:34:42.814Z,16.83
2019-03-31T15:37:13.316Z,16.73
2019-03-31T15:39:43.770Z,16.73
2019-03-31T15:42:14.256Z,16.62
2019-03-31T15:44:44.748Z,16.66
2019-03-31T15:47:15.234Z,16.59
2019-03-31T15:49:45.681Z,16.51
2019-03-31T15:52:16.207Z,16.35
2019-03-31T15:54:46.682Z,16.34
2019-03-31T15:57:17.329Z,16.14
2019-03-31T15:59:56.955Z,16.18
2019-03-31T16:02:29.005Z,16.16
2019-03-31T16:04:59.444Z,16.10
2019-03-31T16:07:29.922Z,15.98
2019-03-31T16:10:00.407Z,15.85
2019-03-31T16:12:30.876Z,15.72
2019-03-31T16:15:02.295Z,15.46
2019-03-31T16:17:32.802Z,15.45
2019-03-31T16:20:03.355Z,15.15
2019-03-31T16:22:33.935Z,15.03
2019-03-31T16:25:22.520Z,14.82
2019-03-31T16:27:53.025Z,14.71
2019-03-31T16:30:23.485Z,14.48
2019-03-31T16:32:53.992Z,14.27
2019-03-31T16:35:24.459Z,14.08
2019-03-31T16:37:54.947Z,13.73
2019-03-31T16:40:25.417Z,13.34
2019-03-31T16:42:55.909Z,13.26
2019-03-31T16:45:26.383Z,13.06
2019-03-31T16:47:56.875Z,12.86
2019-03-31T16:50:27.322Z,12.73
2019-03-31T16:52:57.840Z,12.71
2019-03-31T16:55:28.273Z,12.80
2019-03-31T16:57:58.798Z,12.92
2019-03-31T17:00:29.283Z,12.91
2019-03-31T17:02:59.795Z,12.87
2019-03-31T17:05:32.241Z,12.78
2019-03-31T17:08:02.723Z,12.78
2019-03-31T17:10:33.172Z,12.48
2019-03-31T17:13:03.663Z,12.48
2019-03-31T17:15:35.176Z,12.58
2019-03-31T17:18:05.645Z,12.62
2019-03-31T17:20:36.125Z,12.62
2019-03-31T17:23:06.729Z,12.59
2019-03-31T17:25:37.117Z,12.61
2019-03-31T17:28:10.129Z,12.77
2019-03-31T17:30:39.760Z,12.87
2019-03-31T17:33:11.357Z,12.77
2019-03-31T17:35:42.583Z,12.63
2019-03-31T17:38:13.068Z,12.46
2019-03-31T17:40:43.524Z,12.25
2019-03-31T17:43:14.034Z,12.21
2019-03-31T17:45:44.521Z,12.30
2019-03-31T17:48:15.003Z,12.27
2019-03-31T17:50:45.442Z,12.35
2019-03-31T17:53:15.915Z,12.22
2019-03-31T17:55:46.393Z,12.13
2019-03-31T17:58:16.894Z,12.04
2019-03-31T18:00:47.357Z,12.09
2019-03-31T18:03:17.847Z,11.88
2019-03-31T18:05:48.283Z,11.83
2019-03-31T18:08:18.780Z,11.75
2019-03-31T18:10:49.249Z,11.71
2019-03-31T18:13:19.740Z,11.66
2019-03-31T18:15:53.519Z,11.49
2019-03-31T18:18:23.982Z,11.47
2019-03-31T18:20:54.443Z,11.46
2019-03-31T18:23:25.025Z,11.52
2019-03-31T18:25:55.483Z,11.54
2019-03-31T18:28:25.952Z,11.27
2019-03-31T18:30:56.403Z,11.17
2019-03-31T18:33:26.913Z,10.99
2019-03-31T18:35:57.498Z,10.88
2019-03-31T18:38:27.977Z,10.84
2019-03-31T18:40:58.419Z,10.85
2019-03-31T18:43:28.932Z,10.78
2019-03-31T18:45:59.670Z,10.89
2019-03-31T18:48:30.207Z,10.92
2019-03-31T18:51:00.652Z,10.63
2019-03-31T18:53:49.070Z,10.58
2019-03-31T18:56:37.224Z,10.58
2019-03-31T18:59:18.014Z,10.41
2019-03-31T19:01:59.224Z,10.41
2019-03-31T19:04:46.245Z,10.29
2019-03-31T19:07:24.175Z,10.32
2019-03-31T19:09:59.219Z,10.20
2019-03-31T19:12:47.638Z,10.24
2019-03-31T19:15:19.723Z,10.40
2019-03-31T19:17:52.736Z,10.40
2019-03-31T19:20:33.794Z,10.45
2019-03-31T19:23:06.194Z,10.54
2019-03-31T19:25:41.385Z,10.54
2019-03-31T19:28:13.420Z,10.46
2019-03-31T19:31:03.576Z,10.38
2019-03-31T19:33:50.646Z,10.44
2019-03-31T19:36:31.523Z,10.35
2019-03-31T19:39:12.675Z,10.35
2019-03-31T19:41:53.715Z,10.41
2019-03-31T19:44:44.090Z,10.41
2019-03-31T19:47:24.801Z,10.45
2019-03-31T19:50:02.632Z,10.45
2019-03-31T19:52:34.677Z,10.42
2019-03-31T19:55:16.689Z,10.49
2019-03-31T19:58:07.031Z,10.47
2019-03-31T20:00:39.023Z,10.47
2019-03-31T20:03:27.472Z,10.47
2019-03-31T20:05:59.471Z,10.42
2019-03-31T20:08:34.511Z,10.49
2019-03-31T20:11:15.768Z,10.56
2019-03-31T20:13:47.764Z,10.64
2019-03-31T20:16:25.923Z,10.59
2019-03-31T20:18:58.024Z,10.64
2019-03-31T20:21:32.209Z,10.62
2019-03-31T20:24:18.721Z,10.54
2019-03-31T20:27:06.978Z,10.50
2019-03-31T20:29:55.611Z,10.50
2019-03-31T20:32:33.430Z,10.50
2019-03-31T20:35:09.003Z,10.50
2019-03-31T20:37:41.313Z,10.56
2019-03-31T20:40:19.436Z,10.50
2019-03-31T20:42:54.409Z,10.44
2019-03-31T20:45:24.858Z,10.41
2019-03-31T20:47:55.317Z,10.29
2019-03-31T20:50:25.948Z,10.11
2019-03-31T20:52:56.418Z,10.11
2019-03-31T20:55:26.942Z,10.10
2019-03-31T20:57:57.373Z,10.13
2019-03-31T21:00:27.903Z,10.05
2019-03-31T21:02:58.330Z,10.05
2019-03-31T21:05:28.840Z,9.94
2019-03-31T21:07:59.312Z,9.89
2019-03-31T21:10:30.898Z,9.78
2019-03-31T21:13:01.518Z,9.75
2019-03-31T21:15:32.080Z,9.72
2019-03-31T21:18:02.658Z,9.66
2019-03-31T21:20:34.039Z,9.65
2019-03-31T21:23:04.491Z,9.61
2019-03-31T21:25:34.910Z,9.63
2019-03-31T21:28:05.445Z,9.69
2019-03-31T21:30:36.286Z,9.71
2019-03-31T21:33:06.752Z,9.77
2019-03-31T21:35:37.178Z,9.60
2019-03-31T21:38:07.697Z,9.57
2019-03-31T21:40:42.461Z,9.83
2019-03-31T21:43:12.941Z,10.21
2019-03-31T21:45:43.350Z,10.51
2019-03-31T21:48:13.879Z,10.60
2019-03-31T21:50:44.342Z,10.58
2019-03-31T21:53:14.831Z,10.64
2019-03-31T21:55:45.242Z,10.60
2019-03-31T21:58:15.644Z,10.62
2019-03-31T22:00:47.655Z,10.60
2019-03-31T22:03:18.327Z,10.63
2019-03-31T22:05:48.740Z,10.63
2019-03-31T22:08:19.139Z,10.58
2019-03-31T22:10:49.560Z,10.57
2019-03-31T22:13:20.058Z,10.55
2019-03-31T22:15:50.483Z,10.51
2019-03-31T22:18:20.921Z,10.55
2019-03-31T22:20:51.492Z,10.55
2019-03-31T22:23:21.970Z,10.51
2019-03-31T22:25:52.424Z,10.49
2019-03-31T22:28:23.003Z,10.44
2019-03-31T22:30:53.440Z,10.42
2019-03-31T22:33:23.907Z,10.38
2019-03-31T22:36:12.527Z,10.35
2019-03-31T22:38:43.021Z,10.24
2019-03-31T22:41:13.447Z,10.13
2019-03-31T22:43:43.958Z,10.07
2019-03-31T22:46:14.436Z,10.03
2019-03-31T22:48:44.938Z,9.94
2019-03-31T22:51:15.389Z,9.88
2019-03-31T22:53:45.848Z,9.83
2019-03-31T22:56:16.305Z,9.73
2019-03-31T22:58:46.768Z,9.73
2019-03-31T23:01:17.317Z,9.70
2019-03-31T23:03:47.796Z,9.63
2019-03-31T23:06:18.248Z,9.56
2019-03-31T23:08:48.745Z,9.58
2019-03-31T23:11:19.227Z,9.53
2019-03-31T23:13:49.686Z,9.49
2019-03-31T23:16:20.136Z,9.42
2019-03-31T23:18:50.684Z,9.52
2019-03-31T23:21:21.334Z,9.51
2019-03-31T23:23:51.828Z,9.48
2019-03-31T23:26:22.269Z,9.50
2019-03-31T23:28:52.809Z,9.56
2019-03-31T23:31:23.214Z,9.51
2019-03-31T23:33:53.709Z,9.48
2019-03-31T23:36:24.164Z,9.46
2019-03-31T23:38:58.215Z,9.51
2019-03-31T23:41:26.717Z,9.63
2019-03-31T23:43:57.198Z,9.52
2019-03-31T23:46:27.638Z,9.49
2019-03-31T23:48:58.113Z,9.48
2019-03-31T23:51:28.512Z,9.44
2019-03-31T23:53:58.974Z,9.49
2019-03-31T23:56:29.393Z,9.52
2019-03-31T23:58:59.878Z,9.56
